Terminal Aerodrome Forecast
Issued by NWS Kansas City/Pleasant Hill, MO

Home | Current Version | Previous Version | Text Only | Print | Product List | Glossary On
Versions: 1 2 3 4 5 6 7 8 9 10 11 12 13 14 15 16 17 18
000
FTUS43 KEAX 131720
TAFMCI
TAF
KMCI 131720Z 1318/1418 36008KT P6SM OVC060
     FM140600 14007KT P6SM OVC050
     FM141000 VRB05KT 6SM BR VCSH OVC030
     FM141300 18008KT 1SM -SN SCT015 OVC020=

USA.gov is the U.S. government's official web portal to all federal, state and local government web resources and services.